createdAt,value
2018-05-16T00:01:13.655Z,24.57
2018-05-16T00:03:41.184Z,24.83
2018-05-16T00:06:08.709Z,27.70
2018-05-16T00:08:36.236Z,26.93
2018-05-16T00:11:03.761Z,33.03
2018-05-16T00:13:31.306Z,29.17
2018-05-16T00:15:58.836Z,28.67
2018-05-16T00:18:26.368Z,29.00
2018-05-16T00:20:53.900Z,29.70
2018-05-16T00:23:21.424Z,31.53
2018-05-16T00:25:48.949Z,38.27
2018-05-16T00:28:16.480Z,35.77
2018-05-16T00:30:44.009Z,42.67
2018-05-16T00:33:11.532Z,36.67
2018-05-16T00:35:39.057Z,33.50
2018-05-16T00:38:06.585Z,37.67
2018-05-16T00:40:34.132Z,43.40
2018-05-16T00:43:01.661Z,33.77
2018-05-16T00:45:29.374Z,37.87
2018-05-16T00:47:56.896Z,33.23
2018-05-16T00:50:24.440Z,38.37
2018-05-16T00:52:51.975Z,36.97
2018-05-16T00:55:19.500Z,36.80
2018-05-16T00:57:47.016Z,35.53
2018-05-16T01:00:14.549Z,37.30
2018-05-16T01:02:42.076Z,35.60
2018-05-16T01:05:09.608Z,31.07
2018-05-16T01:07:37.132Z,39.93
2018-05-16T01:10:04.664Z,35.77
2018-05-16T01:12:32.192Z,34.63
2018-05-16T01:14:59.731Z,40.73
2018-05-16T01:17:27.268Z,38.00
2018-05-16T01:19:54.853Z,33.87
2018-05-16T01:22:22.361Z,33.67
2018-05-16T01:24:49.880Z,40.43
2018-05-16T01:27:17.404Z,38.60
2018-05-16T01:29:44.936Z,36.43
2018-05-16T01:32:12.455Z,37.63
2018-05-16T01:34:39.991Z,34.57
2018-05-16T01:37:07.508Z,34.67
2018-05-16T01:39:35.040Z,37.30
2018-05-16T01:42:02.592Z,36.57
2018-05-16T01:44:30.107Z,40.30
2018-05-16T01:46:57.631Z,38.07
2018-05-16T01:49:25.163Z,37.60
2018-05-16T01:51:52.693Z,38.13
2018-05-16T01:54:20.223Z,40.53
2018-05-16T01:56:47.747Z,40.93
2018-05-16T01:59:15.276Z,43.07
2018-05-16T02:01:42.815Z,44.10
2018-05-16T02:04:10.355Z,47.50
2018-05-16T02:06:37.892Z,40.27
2018-05-16T02:09:06.330Z,43.33
2018-05-16T02:11:33.883Z,46.83
2018-05-16T02:14:01.420Z,40.53
2018-05-16T02:16:28.950Z,48.47
2018-05-16T02:18:56.476Z,43.73
2018-05-16T02:21:24.002Z,46.10
2018-05-16T02:23:51.537Z,42.73
2018-05-16T02:26:19.082Z,46.73
2018-05-16T02:28:46.609Z,44.47
2018-05-16T02:31:14.135Z,44.50
2018-05-16T02:33:41.660Z,41.53
2018-05-16T02:36:09.183Z,43.67
2018-05-16T02:38:36.731Z,42.70
2018-05-16T02:41:04.310Z,41.13
2018-05-16T02:43:31.831Z,46.53
2018-05-16T02:45:59.355Z,41.90
2018-05-16T02:48:26.901Z,43.13
2018-05-16T02:50:54.473Z,45.87
2018-05-16T02:53:22.010Z,47.47
2018-05-16T02:55:49.548Z,45.07
2018-05-16T02:58:17.094Z,43.50
2018-05-16T03:00:44.612Z,46.03
2018-05-16T03:03:12.140Z,53.07
2018-05-16T03:05:39.676Z,52.17
2018-05-16T03:08:07.205Z,49.00
2018-05-16T03:10:34.745Z,50.70
2018-05-16T03:13:02.276Z,51.93
2018-05-16T03:15:29.816Z,49.40
2018-05-16T03:17:57.336Z,47.00
2018-05-16T03:20:24.865Z,48.70
2018-05-16T03:22:52.409Z,49.07
2018-05-16T03:25:19.945Z,55.63
2018-05-16T03:27:47.476Z,49.50
2018-05-16T03:30:15.008Z,55.47
2018-05-16T03:32:42.554Z,56.27
2018-05-16T03:35:10.090Z,57.57
2018-05-16T03:37:37.615Z,57.47
2018-05-16T03:40:05.160Z,55.23
2018-05-16T03:42:32.694Z,57.60
2018-05-16T03:45:00.221Z,59.07
2018-05-16T03:47:27.747Z,63.80
2018-05-16T03:49:55.277Z,57.93
2018-05-16T03:52:22.805Z,57.40
2018-05-16T03:54:50.332Z,53.80
2018-05-16T03:57:29.543Z,50.77
2018-05-16T04:00:08.889Z,52.70
2018-05-16T04:05:40.080Z,49.37
2018-05-16T04:08:07.614Z,54.03
2018-05-16T04:10:35.144Z,50.73
2018-05-16T04:13:02.673Z,49.60
2018-05-16T04:15:30.207Z,49.07
2018-05-16T04:17:57.756Z,52.60
2018-05-16T04:20:25.287Z,54.67
2018-05-16T04:22:52.809Z,55.80
2018-05-16T04:25:20.336Z,54.50
2018-05-16T04:27:47.902Z,51.97
2018-05-16T04:30:15.426Z,50.27
2018-05-16T04:32:43.025Z,50.60
2018-05-16T04:35:10.505Z,53.00
2018-05-16T04:37:38.036Z,51.10
2018-05-16T04:40:05.558Z,54.60
2018-05-16T04:42:33.084Z,51.37
2018-05-16T04:45:00.608Z,50.93
2018-05-16T04:47:28.139Z,46.17
2018-05-16T04:49:55.677Z,44.17
2018-05-16T04:52:23.239Z,43.53
2018-05-16T04:54:50.763Z,47.50
2018-05-16T04:57:18.308Z,46.97
2018-05-16T04:59:45.844Z,42.93
2018-05-16T05:02:13.389Z,41.60
2018-05-16T05:04:40.928Z,44.33
2018-05-16T05:07:08.452Z,40.57
2018-05-16T05:09:36.006Z,40.57
2018-05-16T05:12:03.529Z,40.57
2018-05-16T05:14:31.056Z,40.80
2018-05-16T05:16:58.588Z,38.97
2018-05-16T05:19:26.113Z,40.17
2018-05-16T05:21:53.640Z,40.27
2018-05-16T05:24:21.164Z,39.70
2018-05-16T05:26:48.714Z,40.60
2018-05-16T05:29:16.244Z,36.30
2018-05-16T05:31:43.774Z,36.30
2018-05-16T05:34:11.297Z,37.37
2018-05-16T05:36:38.825Z,32.97
2018-05-16T05:39:06.352Z,35.30
2018-05-16T05:41:33.881Z,31.17
2018-05-16T05:44:01.400Z,31.67
2018-05-16T05:46:28.934Z,33.10
2018-05-16T05:48:56.458Z,34.87
2018-05-16T05:51:23.992Z,29.57
2018-05-16T05:53:51.524Z,29.30
2018-05-16T05:56:19.064Z,29.17
2018-05-16T05:58:46.595Z,28.83
2018-05-16T06:01:14.115Z,30.97
2018-05-16T06:03:41.656Z,29.20
2018-05-16T06:06:09.263Z,27.67
2018-05-16T06:08:36.728Z,27.37
2018-05-16T06:11:04.254Z,27.10
2018-05-16T06:13:31.780Z,27.40
2018-05-16T06:15:59.299Z,26.33
2018-05-16T06:18:26.826Z,27.37
2018-05-16T06:20:54.372Z,26.67
2018-05-16T06:23:21.901Z,26.87
2018-05-16T06:25:49.435Z,24.20
2018-05-16T06:28:16.968Z,25.17
2018-05-16T06:30:44.492Z,25.83
2018-05-16T06:33:12.021Z,26.00
2018-05-16T06:35:39.547Z,25.50
2018-05-16T06:38:07.072Z,25.97
2018-05-16T06:40:34.610Z,23.67
2018-05-16T06:43:02.145Z,25.27
2018-05-16T06:45:31.815Z,24.60
2018-05-16T06:47:59.341Z,25.03
2018-05-16T06:50:26.891Z,24.33
2018-05-16T06:52:54.426Z,27.60
2018-05-16T06:55:22.015Z,24.23
2018-05-16T06:57:49.573Z,27.67
2018-05-16T07:00:17.108Z,23.50
2018-05-16T07:02:44.762Z,27.30
2018-05-16T07:05:12.417Z,26.57
2018-05-16T07:07:39.943Z,27.03
2018-05-16T07:10:07.537Z,24.83
2018-05-16T07:12:35.069Z,24.27
2018-05-16T07:15:02.613Z,23.80
2018-05-16T07:17:30.212Z,23.57
2018-05-16T07:19:57.744Z,24.67
2018-05-16T07:22:25.338Z,22.10
2018-05-16T07:24:52.870Z,26.00
2018-05-16T07:27:20.397Z,20.97
2018-05-16T07:29:47.936Z,21.20
2018-05-16T07:32:15.580Z,20.43
2018-05-16T07:34:43.109Z,21.30
2018-05-16T07:37:10.700Z,20.20
2018-05-16T07:39:38.225Z,18.87
2018-05-16T07:42:05.883Z,18.03
2018-05-16T07:44:33.479Z,18.23
2018-05-16T07:47:01.097Z,17.13
2018-05-16T07:49:28.618Z,16.90
2018-05-16T07:51:56.265Z,16.12
2018-05-16T07:54:23.793Z,15.18
2018-05-16T07:56:51.324Z,15.35
2018-05-16T07:59:18.876Z,13.50
2018-05-16T08:01:46.403Z,16.12
2018-05-16T08:04:13.940Z,14.75
2018-05-16T08:06:41.487Z,14.13
2018-05-16T08:09:09.018Z,15.20
2018-05-16T08:11:36.573Z,17.50
2018-05-16T08:14:04.112Z,14.37
2018-05-16T08:16:31.632Z,14.13
2018-05-16T08:18:59.216Z,14.97
2018-05-16T08:21:26.881Z,13.67
2018-05-16T08:23:54.414Z,14.33
2018-05-16T08:26:21.941Z,16.27
2018-05-16T08:28:49.549Z,15.33
2018-05-16T08:31:17.170Z,14.43
2018-05-16T08:33:44.680Z,15.00
2018-05-16T08:36:12.227Z,18.40
2018-05-16T08:38:39.801Z,15.70
2018-05-16T08:41:07.395Z,15.63
2018-05-16T08:43:35.027Z,13.73
2018-05-16T08:46:02.599Z,16.30
2018-05-16T08:48:30.129Z,19.60
2018-05-16T08:50:57.660Z,14.87
2018-05-16T08:53:25.206Z,17.10
2018-05-16T08:55:52.824Z,11.23
2018-05-16T08:58:20.349Z,13.10
2018-05-16T09:00:47.944Z,11.00
2018-05-16T09:03:15.475Z,9.75
2018-05-16T09:05:42.992Z,13.73
2018-05-16T09:08:10.675Z,9.80
2018-05-16T09:10:38.215Z,10.45
2018-05-16T09:13:05.749Z,9.95
2018-05-16T09:15:33.268Z,10.07
2018-05-16T09:18:00.796Z,8.88
2018-05-16T09:20:28.424Z,11.23
2018-05-16T09:22:55.984Z,12.18
2018-05-16T09:25:23.508Z,11.05
2018-05-16T09:27:51.062Z,8.40
2018-05-16T09:30:18.592Z,11.25
2018-05-16T09:32:46.108Z,8.48
2018-05-16T09:35:13.633Z,8.35
2018-05-16T09:37:41.160Z,8.20
2018-05-16T09:40:08.689Z,9.90
2018-05-16T09:42:36.223Z,7.65
2018-05-16T09:45:03.758Z,7.80
2018-05-16T09:47:31.276Z,7.75
2018-05-16T09:49:58.795Z,8.63
2018-05-16T09:52:26.316Z,9.73
2018-05-16T09:54:53.849Z,7.05
2018-05-16T09:57:21.372Z,7.97
2018-05-16T09:59:49.531Z,9.90
2018-05-16T10:02:17.713Z,8.43
2018-05-16T10:04:45.239Z,7.37
2018-05-16T10:07:12.780Z,8.43
2018-05-16T10:09:40.360Z,9.67
2018-05-16T10:12:07.901Z,8.00
2018-05-16T10:14:35.432Z,7.50
2018-05-16T10:17:02.989Z,7.53
2018-05-16T10:19:30.513Z,6.63
2018-05-16T10:21:58.044Z,6.40
2018-05-16T10:24:25.592Z,8.80
2018-05-16T10:26:53.158Z,9.37
2018-05-16T10:29:20.684Z,7.10
2018-05-16T10:31:48.211Z,10.87
2018-05-16T10:34:15.810Z,8.60
2018-05-16T10:36:43.369Z,9.40
2018-05-16T10:39:10.902Z,7.67
2018-05-16T10:41:38.456Z,8.47
2018-05-16T10:44:05.984Z,6.23
2018-05-16T10:46:33.507Z,5.77
2018-05-16T10:49:01.032Z,6.00
2018-05-16T10:51:28.572Z,5.13
2018-05-16T10:53:56.112Z,5.47
2018-05-16T10:56:23.641Z,7.60
2018-05-16T10:58:51.168Z,8.87
2018-05-16T11:01:18.693Z,7.20
2018-05-16T11:03:46.219Z,5.33
2018-05-16T11:06:13.749Z,5.60
2018-05-16T11:08:41.272Z,9.00
2018-05-16T11:11:08.798Z,4.10
2018-05-16T11:13:36.326Z,4.43
2018-05-16T11:16:03.852Z,5.10
2018-05-16T11:18:31.409Z,4.83
2018-05-16T11:20:58.936Z,5.90
2018-05-16T11:23:26.459Z,5.50
2018-05-16T11:25:53.988Z,5.10
2018-05-16T11:28:21.513Z,5.03
2018-05-16T11:30:49.103Z,7.27
2018-05-16T11:33:16.652Z,5.50
2018-05-16T11:35:44.178Z,5.67
2018-05-16T11:38:11.711Z,6.57
2018-05-16T11:40:39.247Z,5.90
2018-05-16T11:43:06.789Z,5.90
2018-05-16T11:45:34.329Z,8.30
2018-05-16T11:48:01.887Z,5.40
2018-05-16T11:50:29.416Z,5.90
2018-05-16T11:52:56.952Z,7.30
2018-05-16T11:55:24.498Z,5.93
2018-05-16T11:57:52.031Z,6.17
2018-05-16T12:00:19.548Z,6.40
2018-05-16T12:02:47.266Z,10.27
2018-05-16T12:05:14.741Z,5.93
2018-05-16T12:07:42.331Z,7.43
2018-05-16T12:10:09.863Z,6.50
2018-05-16T12:12:37.419Z,7.13
2018-05-16T12:15:04.956Z,7.37
2018-05-16T12:17:32.508Z,8.37
2018-05-16T12:20:00.086Z,5.63
2018-05-16T12:22:27.625Z,5.97
2018-05-16T12:24:55.148Z,6.53
2018-05-16T12:27:22.788Z,7.00
2018-05-16T12:29:50.340Z,7.60
2018-05-16T12:32:17.866Z,8.20
2018-05-16T12:34:45.443Z,6.37
2018-05-16T12:37:12.987Z,5.80
2018-05-16T12:39:40.523Z,6.17
2018-05-16T12:42:08.107Z,6.60
2018-05-16T12:44:35.652Z,6.87
2018-05-16T12:47:03.270Z,7.23
2018-05-16T12:49:30.798Z,5.97
2018-05-16T12:51:58.337Z,5.27
2018-05-16T12:54:25.870Z,6.97
2018-05-16T12:56:53.396Z,6.10
2018-05-16T12:59:20.924Z,4.93
2018-05-16T13:01:48.444Z,4.93
2018-05-16T13:04:15.975Z,4.80
2018-05-16T13:06:43.499Z,4.97
2018-05-16T13:09:11.020Z,5.03
2018-05-16T13:11:38.549Z,4.70
2018-05-16T13:14:06.077Z,5.43
2018-05-16T13:16:33.599Z,5.27
2018-05-16T13:19:01.139Z,3.80
2018-05-16T13:21:28.729Z,4.53
2018-05-16T13:23:56.209Z,6.63
2018-05-16T13:26:23.760Z,4.57
2018-05-16T13:28:51.677Z,3.83
2018-05-16T13:31:19.233Z,5.10
2018-05-16T13:33:46.797Z,3.80
2018-05-16T13:36:14.369Z,3.70
2018-05-16T13:38:42.020Z,4.90
2018-05-16T13:41:09.536Z,5.87
2018-05-16T13:43:37.065Z,4.93
2018-05-16T13:46:04.700Z,4.33
2018-05-16T13:48:32.216Z,6.23
2018-05-16T13:50:59.820Z,6.80
2018-05-16T13:53:27.380Z,4.60
2018-05-16T13:55:54.909Z,5.80
2018-05-16T13:58:22.429Z,5.83
2018-05-16T14:00:49.957Z,6.07
2018-05-16T14:03:17.513Z,6.70
2018-05-16T14:05:45.070Z,5.20
2018-05-16T14:08:12.613Z,4.87
2018-05-16T14:10:40.128Z,6.57
2018-05-16T14:13:07.759Z,5.07
2018-05-16T14:15:35.312Z,6.23
2018-05-16T14:18:02.827Z,5.83
2018-05-16T14:20:30.357Z,6.00
2018-05-16T14:22:57.896Z,5.17
2018-05-16T14:25:25.419Z,4.50
2018-05-16T14:27:52.948Z,5.00
2018-05-16T14:30:20.478Z,6.47
2018-05-16T14:32:48.034Z,4.93
2018-05-16T14:35:15.556Z,28.53
2018-05-16T14:37:43.089Z,6.70
2018-05-16T14:40:10.652Z,5.03
2018-05-16T14:42:38.250Z,6.43
2018-05-16T14:45:05.745Z,4.63
2018-05-16T14:47:33.276Z,5.17
2018-05-16T14:50:00.808Z,6.73
2018-05-16T14:52:28.343Z,5.83
2018-05-16T14:54:55.972Z,7.40
2018-05-16T14:57:23.513Z,7.67
2018-05-16T14:59:51.024Z,6.40
2018-05-16T15:02:18.568Z,5.67
2018-05-16T15:04:46.093Z,7.70
2018-05-16T15:07:13.629Z,6.30
2018-05-16T15:09:41.156Z,4.87
2018-05-16T15:12:08.686Z,5.23
2018-05-16T15:14:36.215Z,5.53
2018-05-16T15:17:03.777Z,5.43
2018-05-16T15:19:31.306Z,6.70
2018-05-16T15:21:58.880Z,5.10
2018-05-16T15:24:26.412Z,5.03
2018-05-16T15:26:53.968Z,4.00
2018-05-16T15:29:21.504Z,4.73
2018-05-16T15:31:49.035Z,5.83
2018-05-16T15:34:16.560Z,4.53
2018-05-16T15:36:44.082Z,5.43
2018-05-16T15:39:11.611Z,4.83
2018-05-16T15:41:39.143Z,4.07
2018-05-16T15:44:06.761Z,4.77
2018-05-16T15:46:34.279Z,4.70
2018-05-16T15:49:01.819Z,4.40
2018-05-16T15:51:29.339Z,4.20
2018-05-16T15:53:56.862Z,5.27
2018-05-16T15:56:24.390Z,6.47
2018-05-16T15:58:51.917Z,4.93
2018-05-16T16:01:19.444Z,10.10
2018-05-16T16:03:46.968Z,5.67
2018-05-16T16:06:14.503Z,4.97
2018-05-16T16:08:42.019Z,7.57
2018-05-16T16:11:09.557Z,7.63
2018-05-16T16:13:37.084Z,6.13
2018-05-16T16:16:04.649Z,7.00
2018-05-16T16:18:32.173Z,5.90
2018-05-16T16:20:59.710Z,6.27
2018-05-16T16:23:27.256Z,6.40
2018-05-16T16:25:54.796Z,8.53
2018-05-16T16:28:22.532Z,7.67
2018-05-16T16:30:50.106Z,8.00
2018-05-16T16:33:17.655Z,9.40
2018-05-16T16:35:45.214Z,7.30
2018-05-16T16:38:12.771Z,7.37
2018-05-16T16:40:40.323Z,7.87
2018-05-16T16:43:07.863Z,8.70
2018-05-16T16:45:35.401Z,7.87
2018-05-16T16:48:02.961Z,6.43
2018-05-16T16:50:30.521Z,5.57
2018-05-16T16:52:58.093Z,8.23
2018-05-16T16:55:25.645Z,7.03
2018-05-16T16:57:53.193Z,5.83
2018-05-16T17:00:20.761Z,7.63
2018-05-16T17:02:48.304Z,6.40
2018-05-16T17:05:15.837Z,11.23
2018-05-16T17:07:43.372Z,6.33
2018-05-16T17:10:11.073Z,6.70
2018-05-16T17:12:38.623Z,7.30
2018-05-16T17:15:06.183Z,8.57
2018-05-16T17:17:33.738Z,6.73
2018-05-16T17:20:01.291Z,6.57
2018-05-16T17:22:28.860Z,6.87
2018-05-16T17:24:56.500Z,7.17
2018-05-16T17:27:24.001Z,6.70
2018-05-16T17:29:51.554Z,6.53
2018-05-16T17:32:19.075Z,5.40
2018-05-16T17:34:46.588Z,5.73
2018-05-16T17:37:14.117Z,6.67
2018-05-16T17:39:41.676Z,7.47
2018-05-16T17:42:09.238Z,6.50
2018-05-16T17:44:36.774Z,7.90
2018-05-16T17:47:04.329Z,7.97
2018-05-16T17:49:31.850Z,8.00
2018-05-16T17:51:59.372Z,10.43
2018-05-16T17:54:26.913Z,11.40
2018-05-16T17:56:54.462Z,8.23
2018-05-16T17:59:21.977Z,7.20
2018-05-16T18:01:49.510Z,9.50
2018-05-16T18:04:17.069Z,7.83
2018-05-16T18:06:44.594Z,6.63
2018-05-16T18:09:12.112Z,10.80
2018-05-16T18:11:39.632Z,13.45
2018-05-16T18:14:19.089Z,6.90
2018-05-16T18:16:58.718Z,10.70
2018-05-16T18:19:26.285Z,8.07
2018-05-16T18:21:53.845Z,10.77
2018-05-16T18:24:21.365Z,9.47
2018-05-16T18:26:48.968Z,10.87
2018-05-16T18:29:16.502Z,8.73
2018-05-16T18:31:44.071Z,7.70
2018-05-16T18:34:11.584Z,9.93
2018-05-16T18:36:39.139Z,7.90
2018-05-16T18:39:06.769Z,7.73
2018-05-16T18:41:34.291Z,10.33
2018-05-16T18:44:01.829Z,8.87
2018-05-16T18:46:29.377Z,8.37
2018-05-16T18:48:57.007Z,9.80
2018-05-16T18:51:24.574Z,10.00
2018-05-16T18:53:52.129Z,8.97
2018-05-16T18:56:19.687Z,10.73
2018-05-16T18:58:47.217Z,9.40
2018-05-16T19:01:14.745Z,17.83
2018-05-16T19:03:42.291Z,10.30
2018-05-16T19:06:09.912Z,11.23
2018-05-16T19:08:37.528Z,9.37
2018-05-16T19:11:05.079Z,8.63
2018-05-16T19:13:32.707Z,10.03
2018-05-16T19:16:00.271Z,8.43
2018-05-16T19:18:27.799Z,12.73
2018-05-16T19:20:55.325Z,9.07
2018-05-16T19:23:22.861Z,10.73
2018-05-16T19:25:50.407Z,15.70
2018-05-16T19:28:17.936Z,9.90
2018-05-16T19:30:45.458Z,13.67
2018-05-16T19:33:12.983Z,8.67
2018-05-16T19:35:40.513Z,11.83
2018-05-16T19:38:08.104Z,12.80
2018-05-16T19:40:35.631Z,10.83
2018-05-16T19:43:03.269Z,11.23
2018-05-16T19:45:30.807Z,11.33
2018-05-16T21:09:55.360Z,12.30
2018-05-16T21:12:22.994Z,9.60
2018-05-16T21:14:50.534Z,9.80
2018-05-16T21:17:18.060Z,10.07
2018-05-16T21:19:45.675Z,10.57
2018-05-16T21:22:13.208Z,13.63
2018-05-16T21:24:40.735Z,10.67
2018-05-16T21:27:08.262Z,11.63
2018-05-16T21:29:35.818Z,12.47
2018-05-16T21:32:03.345Z,13.87
2018-05-16T21:34:30.937Z,11.33
2018-05-16T21:36:58.506Z,14.70
2018-05-16T21:39:26.027Z,10.93
2018-05-16T21:41:53.564Z,11.23
2018-05-16T21:44:21.106Z,11.70
2018-05-16T21:46:48.672Z,12.20
2018-05-16T21:49:16.297Z,14.30
2018-05-16T21:51:43.858Z,12.90
2018-05-16T21:54:11.436Z,12.13
2018-05-16T21:56:39.025Z,16.43
2018-05-16T21:59:06.524Z,13.47
2018-05-16T22:01:34.053Z,12.37
2018-05-16T22:04:01.581Z,14.67
2018-05-16T22:06:29.115Z,11.13
2018-05-16T22:08:56.649Z,11.97
2018-05-16T22:11:24.181Z,11.83
2018-05-16T22:13:51.732Z,13.77
2018-05-16T22:16:19.253Z,11.77
2018-05-16T22:18:46.780Z,13.37
2018-05-16T22:21:14.381Z,10.20
2018-05-16T22:23:41.880Z,12.00
2018-05-16T22:26:09.411Z,12.60
2018-05-16T22:28:36.947Z,11.37
2018-05-16T22:31:10.073Z,10.37
2018-05-16T22:33:43.185Z,13.43
2018-05-16T22:36:16.359Z,11.37
2018-05-16T22:38:49.324Z,14.83
2018-05-16T22:41:22.533Z,12.33
2018-05-16T22:43:53.001Z,10.43
2018-05-16T22:46:20.527Z,11.97
2018-05-16T22:48:48.054Z,23.73
2018-05-16T22:51:15.580Z,12.67
2018-05-16T22:53:43.105Z,10.93
2018-05-16T22:56:10.645Z,13.83
2018-05-16T22:58:38.169Z,12.93
2018-05-16T23:01:05.711Z,11.10
2018-05-16T23:03:33.242Z,10.23
2018-05-16T23:06:00.781Z,9.63
2018-05-16T23:08:28.324Z,13.97
2018-05-16T23:10:55.850Z,10.23
2018-05-16T23:13:23.379Z,12.60
2018-05-16T23:15:50.921Z,12.70
2018-05-16T23:18:18.462Z,11.90
2018-05-16T23:20:46.003Z,10.60
2018-05-16T23:23:13.545Z,11.00
2018-05-16T23:25:41.075Z,14.50
2018-05-16T23:28:08.747Z,13.53
2018-05-16T23:30:36.293Z,11.13
2018-05-16T23:33:03.822Z,11.00
2018-05-16T23:35:31.350Z,10.80
2018-05-16T23:37:58.873Z,12.70
2018-05-16T23:40:26.409Z,11.97
2018-05-16T23:42:53.997Z,10.30
2018-05-16T23:45:21.520Z,11.10
2018-05-16T23:47:49.045Z,17.20
2018-05-16T23:50:16.567Z,10.20
2018-05-16T23:52:44.093Z,10.23
2018-05-16T23:55:11.623Z,11.20
2018-05-16T23:57:39.146Z,12.40
